sensor_id;sensor_type;location;lat;lon;timestamp;P1;durP1;ratioP1;P2;durP2;ratioP2
74833;SDS011;63361;52.384;20.930;2023-10-31T00:01:20;47.90;;;21.77;;
74833;SDS011;63361;52.384;20.930;2023-10-31T00:03:46;48.25;;;20.88;;
74833;SDS011;63361;52.384;20.930;2023-10-31T00:06:11;45.37;;;21.17;;
74833;SDS011;63361;52.384;20.930;2023-10-31T00:08:37;41.47;;;20.57;;
74833;SDS011;63361;52.384;20.930;2023-10-31T00:11:02;43.30;;;21.27;;
74833;SDS011;63361;52.384;20.930;2023-10-31T00:13:27;59.63;;;22.27;;
74833;SDS011;63361;52.384;20.930;2023-10-31T00:15:53;37.27;;;20.37;;
74833;SDS011;63361;52.384;20.930;2023-10-31T00:18:18;61.17;;;24.30;;
74833;SDS011;63361;52.384;20.930;2023-10-31T00:20:43;57.37;;;23.73;;
74833;SDS011;63361;52.384;20.930;2023-10-31T00:23:10;52.67;;;22.17;;
74833;SDS011;63361;52.384;20.930;2023-10-31T00:25:35;51.37;;;21.10;;
74833;SDS011;63361;52.384;20.930;2023-10-31T00:28:00;44.83;;;19.83;;
74833;SDS011;63361;52.384;20.930;2023-10-31T00:30:26;58.93;;;22.30;;
74833;SDS011;63361;52.384;20.930;2023-10-31T00:32:51;47.53;;;22.77;;
74833;SDS011;63361;52.384;20.930;2023-10-31T00:35:16;54.50;;;22.07;;
74833;SDS011;63361;52.384;20.930;2023-10-31T00:37:42;55.80;;;22.93;;
74833;SDS011;63361;52.384;20.930;2023-10-31T00:40:07;54.37;;;23.13;;
74833;SDS011;63361;52.384;20.930;2023-10-31T00:42:36;69.35;;;25.50;;
74833;SDS011;63361;52.384;20.930;2023-10-31T00:45:02;74.72;;;25.08;;
74833;SDS011;63361;52.384;20.930;2023-10-31T00:47:27;45.97;;;19.93;;
74833;SDS011;63361;52.384;20.930;2023-10-31T00:49:52;44.63;;;19.83;;
74833;SDS011;63361;52.384;20.930;2023-10-31T00:52:18;40.33;;;18.97;;
74833;SDS011;63361;52.384;20.930;2023-10-31T00:54:43;55.22;;;22.80;;
74833;SDS011;63361;52.384;20.930;2023-10-31T00:57:09;39.37;;;18.53;;
74833;SDS011;63361;52.384;20.930;2023-10-31T00:59:34;50.10;;;21.03;;
74833;SDS011;63361;52.384;20.930;2023-10-31T01:01:59;37.43;;;18.33;;
74833;SDS011;63361;52.384;20.930;2023-10-31T01:04:25;39.23;;;18.10;;
74833;SDS011;63361;52.384;20.930;2023-10-31T01:06:51;40.72;;;17.48;;
74833;SDS011;63361;52.384;20.930;2023-10-31T01:09:16;45.20;;;18.93;;
74833;SDS011;63361;52.384;20.930;2023-10-31T01:11:42;38.70;;;17.83;;
74833;SDS011;63361;52.384;20.930;2023-10-31T01:14:07;34.13;;;17.03;;
74833;SDS011;63361;52.384;20.930;2023-10-31T01:16:32;41.80;;;19.27;;
74833;SDS011;63361;52.384;20.930;2023-10-31T01:18:58;40.17;;;17.20;;
74833;SDS011;63361;52.384;20.930;2023-10-31T01:21:23;34.67;;;16.97;;
74833;SDS011;63361;52.384;20.930;2023-10-31T01:23:48;32.95;;;16.73;;
74833;SDS011;63361;52.384;20.930;2023-10-31T01:26:14;32.20;;;16.43;;
74833;SDS011;63361;52.384;20.930;2023-10-31T01:28:39;32.77;;;16.87;;
74833;SDS011;63361;52.384;20.930;2023-10-31T01:31:05;29.47;;;15.37;;
74833;SDS011;63361;52.384;20.930;2023-10-31T01:33:31;33.28;;;16.45;;
74833;SDS011;63361;52.384;20.930;2023-10-31T01:35:56;31.07;;;15.33;;
74833;SDS011;63361;52.384;20.930;2023-10-31T01:38:22;30.98;;;15.65;;
74833;SDS011;63361;52.384;20.930;2023-10-31T01:40:50;35.33;;;17.10;;
74833;SDS011;63361;52.384;20.930;2023-10-31T01:43:31;31.60;;;17.00;;
74833;SDS011;63361;52.384;20.930;2023-10-31T01:45:57;37.13;;;17.80;;
74833;SDS011;63361;52.384;20.930;2023-10-31T01:48:23;39.60;;;18.03;;
74833;SDS011;63361;52.384;20.930;2023-10-31T01:50:50;37.65;;;17.30;;
74833;SDS011;63361;52.384;20.930;2023-10-31T01:53:16;39.72;;;18.20;;
74833;SDS011;63361;52.384;20.930;2023-10-31T01:55:42;41.20;;;18.23;;
74833;SDS011;63361;52.384;20.930;2023-10-31T01:58:09;34.08;;;18.20;;
74833;SDS011;63361;52.384;20.930;2023-10-31T02:00:35;34.13;;;17.23;;
74833;SDS011;63361;52.384;20.930;2023-10-31T02:03:04;36.97;;;17.90;;
74833;SDS011;63361;52.384;20.930;2023-10-31T02:05:30;36.73;;;16.57;;
74833;SDS011;63361;52.384;20.930;2023-10-31T02:07:57;35.55;;;17.00;;
74833;SDS011;63361;52.384;20.930;2023-10-31T02:10:22;26.27;;;14.87;;
74833;SDS011;63361;52.384;20.930;2023-10-31T02:12:47;30.50;;;15.80;;
74833;SDS011;63361;52.384;20.930;2023-10-31T02:15:14;27.55;;;15.10;;
74833;SDS011;63361;52.384;20.930;2023-10-31T02:17:39;30.47;;;15.33;;
74833;SDS011;63361;52.384;20.930;2023-10-31T02:20:05;32.00;;;15.60;;
74833;SDS011;63361;52.384;20.930;2023-10-31T02:22:30;31.42;;;15.00;;
74833;SDS011;63361;52.384;20.930;2023-10-31T02:24:56;30.70;;;14.20;;
74833;SDS011;63361;52.384;20.930;2023-10-31T02:27:21;27.50;;;14.77;;
74833;SDS011;63361;52.384;20.930;2023-10-31T02:29:46;29.65;;;14.65;;
74833;SDS011;63361;52.384;20.930;2023-10-31T02:32:12;29.53;;;14.90;;
74833;SDS011;63361;52.384;20.930;2023-10-31T02:34:37;26.30;;;14.10;;
74833;SDS011;63361;52.384;20.930;2023-10-31T02:37:02;32.23;;;14.63;;
74833;SDS011;63361;52.384;20.930;2023-10-31T02:39:28;26.90;;;14.77;;
74833;SDS011;63361;52.384;20.930;2023-10-31T02:41:53;32.30;;;13.77;;
74833;SDS011;63361;52.384;20.930;2023-10-31T02:44:18;27.63;;;13.63;;
74833;SDS011;63361;52.384;20.930;2023-10-31T02:46:44;27.10;;;13.07;;
74833;SDS011;63361;52.384;20.930;2023-10-31T02:49:09;26.80;;;12.97;;
74833;SDS011;63361;52.384;20.930;2023-10-31T02:51:35;24.30;;;13.40;;
74833;SDS011;63361;52.384;20.930;2023-10-31T02:54:00;21.10;;;13.13;;
74833;SDS011;63361;52.384;20.930;2023-10-31T02:56:25;22.47;;;12.40;;
74833;SDS011;63361;52.384;20.930;2023-10-31T02:58:51;23.43;;;12.57;;
74833;SDS011;63361;52.384;20.930;2023-10-31T03:01:16;28.00;;;12.20;;
74833;SDS011;63361;52.384;20.930;2023-10-31T03:03:42;27.58;;;12.35;;
74833;SDS011;63361;52.384;20.930;2023-10-31T03:06:08;23.47;;;12.20;;
74833;SDS011;63361;52.384;20.930;2023-10-31T03:08:33;21.93;;;12.03;;
74833;SDS011;63361;52.384;20.930;2023-10-31T03:10:59;21.13;;;11.90;;
74833;SDS011;63361;52.384;20.930;2023-10-31T03:13:24;28.10;;;11.50;;
74833;SDS011;63361;52.384;20.930;2023-10-31T03:15:49;26.50;;;11.87;;
74833;SDS011;63361;52.384;20.930;2023-10-31T03:18:15;19.57;;;10.87;;
74833;SDS011;63361;52.384;20.930;2023-10-31T03:20:40;26.98;;;10.68;;
74833;SDS011;63361;52.384;20.930;2023-10-31T03:23:06;23.10;;;11.23;;
74833;SDS011;63361;52.384;20.930;2023-10-31T03:25:31;20.30;;;10.70;;
74833;SDS011;63361;52.384;20.930;2023-10-31T03:27:56;20.40;;;10.73;;
74833;SDS011;63361;52.384;20.930;2023-10-31T03:30:22;19.20;;;10.80;;
74833;SDS011;63361;52.384;20.930;2023-10-31T03:32:47;22.50;;;11.05;;
74833;SDS011;63361;52.384;20.930;2023-10-31T03:35:12;19.33;;;11.10;;
74833;SDS011;63361;52.384;20.930;2023-10-31T03:37:37;16.37;;;9.83;;
74833;SDS011;63361;52.384;20.930;2023-10-31T03:40:06;21.80;;;11.05;;
74833;SDS011;63361;52.384;20.930;2023-10-31T03:42:35;22.37;;;11.33;;
74833;SDS011;63361;52.384;20.930;2023-10-31T03:45:00;19.15;;;10.15;;
74833;SDS011;63361;52.384;20.930;2023-10-31T03:47:26;18.20;;;9.77;;
74833;SDS011;63361;52.384;20.930;2023-10-31T03:49:51;16.73;;;8.57;;
74833;SDS011;63361;52.384;20.930;2023-10-31T03:52:16;16.43;;;8.37;;
74833;SDS011;63361;52.384;20.930;2023-10-31T03:54:41;16.20;;;8.37;;
74833;SDS011;63361;52.384;20.930;2023-10-31T03:57:07;24.40;;;10.43;;
74833;SDS011;63361;52.384;20.930;2023-10-31T03:59:32;23.20;;;9.00;;
74833;SDS011;63361;52.384;20.930;2023-10-31T04:01:57;19.90;;;8.57;;
74833;SDS011;63361;52.384;20.930;2023-10-31T04:04:23;18.07;;;7.97;;
74833;SDS011;63361;52.384;20.930;2023-10-31T04:06:48;17.10;;;8.50;;
74833;SDS011;63361;52.384;20.930;2023-10-31T04:09:13;17.83;;;8.68;;
74833;SDS011;63361;52.384;20.930;2023-10-31T04:11:39;15.37;;;7.90;;
74833;SDS011;63361;52.384;20.930;2023-10-31T04:14:04;16.77;;;8.17;;
74833;SDS011;63361;52.384;20.930;2023-10-31T04:16:30;15.68;;;8.35;;
74833;SDS011;63361;52.384;20.930;2023-10-31T04:18:56;15.80;;;7.47;;
74833;SDS011;63361;52.384;20.930;2023-10-31T04:21:21;12.93;;;6.50;;
74833;SDS011;63361;52.384;20.930;2023-10-31T04:23:47;13.67;;;7.43;;
74833;SDS011;63361;52.384;20.930;2023-10-31T04:26:12;16.80;;;6.77;;
74833;SDS011;63361;52.384;20.930;2023-10-31T04:28:37;16.00;;;6.77;;
74833;SDS011;63361;52.384;20.930;2023-10-31T04:31:04;11.80;;;6.38;;
74833;SDS011;63361;52.384;20.930;2023-10-31T04:33:29;14.93;;;6.60;;
74833;SDS011;63361;52.384;20.930;2023-10-31T04:35:55;12.95;;;7.05;;
74833;SDS011;63361;52.384;20.930;2023-10-31T04:38:20;17.07;;;5.97;;
74833;SDS011;63361;52.384;20.930;2023-10-31T04:40:45;13.80;;;6.77;;
74833;SDS011;63361;52.384;20.930;2023-10-31T04:43:11;14.53;;;5.77;;
74833;SDS011;63361;52.384;20.930;2023-10-31T04:45:36;13.27;;;5.30;;
74833;SDS011;63361;52.384;20.930;2023-10-31T04:48:01;12.63;;;6.13;;
74833;SDS011;63361;52.384;20.930;2023-10-31T04:50:27;11.40;;;5.35;;
74833;SDS011;63361;52.384;20.930;2023-10-31T04:52:52;12.03;;;4.70;;
74833;SDS011;63361;52.384;20.930;2023-10-31T04:55:17;7.50;;;3.80;;
74833;SDS011;63361;52.384;20.930;2023-10-31T04:57:43;8.77;;;4.37;;
74833;SDS011;63361;52.384;20.930;2023-10-31T05:00:08;11.53;;;3.77;;
74833;SDS011;63361;52.384;20.930;2023-10-31T05:02:34;13.52;;;4.60;;
74833;SDS011;63361;52.384;20.930;2023-10-31T05:04:59;9.67;;;3.60;;
74833;SDS011;63361;52.384;20.930;2023-10-31T05:07:25;8.07;;;4.13;;
74833;SDS011;63361;52.384;20.930;2023-10-31T05:09:50;10.97;;;3.40;;
74833;SDS011;63361;52.384;20.930;2023-10-31T05:12:15;7.97;;;3.67;;
74833;SDS011;63361;52.384;20.930;2023-10-31T05:14:41;10.35;;;3.80;;
74833;SDS011;63361;52.384;20.930;2023-10-31T05:17:06;10.10;;;3.80;;
74833;SDS011;63361;52.384;20.930;2023-10-31T05:19:31;11.07;;;3.60;;
74833;SDS011;63361;52.384;20.930;2023-10-31T05:21:57;9.50;;;3.70;;
74833;SDS011;63361;52.384;20.930;2023-10-31T05:24:22;9.30;;;3.70;;
74833;SDS011;63361;52.384;20.930;2023-10-31T05:26:47;7.37;;;3.50;;
74833;SDS011;63361;52.384;20.930;2023-10-31T05:29:13;7.70;;;3.47;;
74833;SDS011;63361;52.384;20.930;2023-10-31T05:31:38;10.35;;;3.60;;
74833;SDS011;63361;52.384;20.930;2023-10-31T05:34:03;8.47;;;4.00;;
74833;SDS011;63361;52.384;20.930;2023-10-31T05:36:29;7.40;;;3.50;;
74833;SDS011;63361;52.384;20.930;2023-10-31T05:38:55;11.00;;;3.13;;
74833;SDS011;63361;52.384;20.930;2023-10-31T05:41:20;8.37;;;3.40;;
74833;SDS011;63361;52.384;20.930;2023-10-31T05:43:46;10.48;;;2.97;;
74833;SDS011;63361;52.384;20.930;2023-10-31T05:46:12;11.30;;;3.40;;
74833;SDS011;63361;52.384;20.930;2023-10-31T05:48:41;7.30;;;3.10;;
74833;SDS011;63361;52.384;20.930;2023-10-31T05:51:14;7.18;;;3.05;;
74833;SDS011;63361;52.384;20.930;2023-10-31T05:53:41;8.97;;;3.10;;
74833;SDS011;63361;52.384;20.930;2023-10-31T05:56:07;7.30;;;3.20;;
74833;SDS011;63361;52.384;20.930;2023-10-31T05:58:34;8.43;;;3.40;;
74833;SDS011;63361;52.384;20.930;2023-10-31T06:00:59;9.63;;;3.78;;
74833;SDS011;63361;52.384;20.930;2023-10-31T06:03:25;8.57;;;2.97;;
74833;SDS011;63361;52.384;20.930;2023-10-31T06:05:50;10.37;;;3.80;;
74833;SDS011;63361;52.384;20.930;2023-10-31T06:08:15;9.83;;;2.80;;
74833;SDS011;63361;52.384;20.930;2023-10-31T06:10:41;6.77;;;3.30;;
74833;SDS011;63361;52.384;20.930;2023-10-31T06:13:06;9.37;;;3.23;;
74833;SDS011;63361;52.384;20.930;2023-10-31T06:15:31;10.57;;;3.40;;
74833;SDS011;63361;52.384;20.930;2023-10-31T06:17:57;7.40;;;3.33;;
74833;SDS011;63361;52.384;20.930;2023-10-31T06:20:22;14.93;;;3.23;;
74833;SDS011;63361;52.384;20.930;2023-10-31T06:22:48;7.15;;;3.13;;
74833;SDS011;63361;52.384;20.930;2023-10-31T06:25:14;11.73;;;3.10;;
74833;SDS011;63361;52.384;20.930;2023-10-31T06:27:39;11.17;;;3.67;;
74833;SDS011;63361;52.384;20.930;2023-10-31T06:30:04;9.80;;;3.47;;
74833;SDS011;63361;52.384;20.930;2023-10-31T06:32:30;8.25;;;3.00;;
74833;SDS011;63361;52.384;20.930;2023-10-31T06:34:56;9.97;;;2.97;;
74833;SDS011;63361;52.384;20.930;2023-10-31T06:37:21;8.47;;;2.97;;
74833;SDS011;63361;52.384;20.930;2023-10-31T06:39:46;8.30;;;3.17;;
74833;SDS011;63361;52.384;20.930;2023-10-31T06:42:11;7.03;;;2.80;;
74833;SDS011;63361;52.384;20.930;2023-10-31T06:44:37;8.32;;;2.83;;
74833;SDS011;63361;52.384;20.930;2023-10-31T06:47:02;7.63;;;3.10;;
74833;SDS011;63361;52.384;20.930;2023-10-31T06:49:27;7.83;;;2.97;;
74833;SDS011;63361;52.384;20.930;2023-10-31T06:51:53;9.40;;;3.00;;
74833;SDS011;63361;52.384;20.930;2023-10-31T06:54:18;9.73;;;3.53;;
74833;SDS011;63361;52.384;20.930;2023-10-31T06:56:44;10.98;;;4.00;;
74833;SDS011;63361;52.384;20.930;2023-10-31T06:59:09;11.40;;;3.47;;
74833;SDS011;63361;52.384;20.930;2023-10-31T07:01:35;7.47;;;3.80;;
74833;SDS011;63361;52.384;20.930;2023-10-31T07:04:00;10.47;;;3.40;;
74833;SDS011;63361;52.384;20.930;2023-10-31T07:06:25;8.47;;;3.53;;
74833;SDS011;63361;52.384;20.930;2023-10-31T07:08:51;8.60;;;3.37;;
74833;SDS011;63361;52.384;20.930;2023-10-31T07:11:16;9.53;;;3.90;;
74833;SDS011;63361;52.384;20.930;2023-10-31T07:13:41;7.47;;;3.23;;
74833;SDS011;63361;52.384;20.930;2023-10-31T07:16:07;8.87;;;3.23;;
74833;SDS011;63361;52.384;20.930;2023-10-31T07:18:32;9.40;;;3.67;;
74833;SDS011;63361;52.384;20.930;2023-10-31T07:20:57;10.20;;;4.13;;
74833;SDS011;63361;52.384;20.930;2023-10-31T07:23:23;8.23;;;3.97;;
74833;SDS011;63361;52.384;20.930;2023-10-31T07:25:48;10.30;;;4.07;;
74833;SDS011;63361;52.384;20.930;2023-10-31T07:28:13;12.17;;;4.53;;
74833;SDS011;63361;52.384;20.930;2023-10-31T07:30:38;11.93;;;4.30;;
74833;SDS011;63361;52.384;20.930;2023-10-31T07:33:04;9.60;;;3.53;;
74833;SDS011;63361;52.384;20.930;2023-10-31T07:35:29;10.37;;;4.03;;
74833;SDS011;63361;52.384;20.930;2023-10-31T07:37:54;12.43;;;3.93;;
74833;SDS011;63361;52.384;20.930;2023-10-31T07:40:20;8.47;;;3.63;;
74833;SDS011;63361;52.384;20.930;2023-10-31T07:42:45;8.47;;;3.87;;
74833;SDS011;63361;52.384;20.930;2023-10-31T07:45:10;10.77;;;3.50;;
74833;SDS011;63361;52.384;20.930;2023-10-31T07:47:36;8.07;;;3.00;;
74833;SDS011;63361;52.384;20.930;2023-10-31T07:50:02;6.20;;;3.03;;
74833;SDS011;63361;52.384;20.930;2023-10-31T07:52:27;7.88;;;3.28;;
74833;SDS011;63361;52.384;20.930;2023-10-31T07:54:52;9.47;;;3.67;;
74833;SDS011;63361;52.384;20.930;2023-10-31T07:57:18;9.37;;;3.50;;
74833;SDS011;63361;52.384;20.930;2023-10-31T07:59:44;10.13;;;4.10;;
74833;SDS011;63361;52.384;20.930;2023-10-31T08:02:09;9.27;;;3.67;;
74833;SDS011;63361;52.384;20.930;2023-10-31T08:04:35;8.93;;;3.07;;
74833;SDS011;63361;52.384;20.930;2023-10-31T08:07:00;7.70;;;2.95;;
74833;SDS011;63361;52.384;20.930;2023-10-31T08:09:26;8.10;;;3.17;;
74833;SDS011;63361;52.384;20.930;2023-10-31T08:11:51;10.93;;;3.50;;
74833;SDS011;63361;52.384;20.930;2023-10-31T08:14:17;7.70;;;3.67;;
74833;SDS011;63361;52.384;20.930;2023-10-31T08:16:42;9.90;;;3.67;;
74833;SDS011;63361;52.384;20.930;2023-10-31T08:19:07;9.30;;;4.00;;
74833;SDS011;63361;52.384;20.930;2023-10-31T08:21:33;14.87;;;3.73;;
74833;SDS011;63361;52.384;20.930;2023-10-31T08:24:03;11.05;;;3.72;;
74833;SDS011;63361;52.384;20.930;2023-10-31T08:26:29;9.13;;;3.63;;
74833;SDS011;63361;52.384;20.930;2023-10-31T08:28:56;8.35;;;3.40;;
74833;SDS011;63361;52.384;20.930;2023-10-31T08:31:21;9.77;;;3.70;;
74833;SDS011;63361;52.384;20.930;2023-10-31T08:33:46;6.55;;;2.92;;
74833;SDS011;63361;52.384;20.930;2023-10-31T08:36:12;9.27;;;3.10;;
74833;SDS011;63361;52.384;20.930;2023-10-31T08:38:37;7.57;;;3.67;;
74833;SDS011;63361;52.384;20.930;2023-10-31T08:41:03;8.07;;;3.00;;
74833;SDS011;63361;52.384;20.930;2023-10-31T08:43:28;7.72;;;2.90;;
74833;SDS011;63361;52.384;20.930;2023-10-31T08:45:54;9.03;;;3.03;;
74833;SDS011;63361;52.384;20.930;2023-10-31T08:48:19;9.47;;;3.10;;
74833;SDS011;63361;52.384;20.930;2023-10-31T08:50:45;10.47;;;2.90;;
74833;SDS011;63361;52.384;20.930;2023-10-31T08:53:10;11.27;;;3.00;;
74833;SDS011;63361;52.384;20.930;2023-10-31T08:55:36;7.73;;;3.00;;
74833;SDS011;63361;52.384;20.930;2023-10-31T08:58:01;7.20;;;2.90;;
74833;SDS011;63361;52.384;20.930;2023-10-31T09:00:27;8.27;;;2.88;;
74833;SDS011;63361;52.384;20.930;2023-10-31T09:02:53;7.13;;;2.50;;
74833;SDS011;63361;52.384;20.930;2023-10-31T09:05:19;5.90;;;2.50;;
74833;SDS011;63361;52.384;20.930;2023-10-31T09:07:44;6.97;;;2.43;;
74833;SDS011;63361;52.384;20.930;2023-10-31T09:10:11;7.75;;;2.40;;
74833;SDS011;63361;52.384;20.930;2023-10-31T09:12:37;9.65;;;2.75;;
74833;SDS011;63361;52.384;20.930;2023-10-31T09:15:03;6.50;;;2.40;;
74833;SDS011;63361;52.384;20.930;2023-10-31T09:17:29;6.43;;;2.55;;
74833;SDS011;63361;52.384;20.930;2023-10-31T09:19:54;8.97;;;2.83;;
74833;SDS011;63361;52.384;20.930;2023-10-31T09:22:19;5.90;;;2.20;;
74833;SDS011;63361;52.384;20.930;2023-10-31T09:24:45;7.20;;;2.47;;
74833;SDS011;63361;52.384;20.930;2023-10-31T09:27:10;10.32;;;2.65;;
74833;SDS011;63361;52.384;20.930;2023-10-31T09:29:35;6.93;;;2.40;;
74833;SDS011;63361;52.384;20.930;2023-10-31T09:32:00;9.03;;;2.20;;
74833;SDS011;63361;52.384;20.930;2023-10-31T09:34:26;6.13;;;2.40;;
74833;SDS011;63361;52.384;20.930;2023-10-31T09:36:51;6.40;;;2.43;;
74833;SDS011;63361;52.384;20.930;2023-10-31T09:39:17;8.23;;;2.53;;
74833;SDS011;63361;52.384;20.930;2023-10-31T09:41:42;8.70;;;2.50;;
74833;SDS011;63361;52.384;20.930;2023-10-31T09:44:08;5.27;;;2.37;;
74833;SDS011;63361;52.384;20.930;2023-10-31T09:46:33;8.87;;;2.97;;
74833;SDS011;63361;52.384;20.930;2023-10-31T09:48:59;17.27;;;3.08;;
74833;SDS011;63361;52.384;20.930;2023-10-31T09:51:25;8.60;;;2.80;;
74833;SDS011;63361;52.384;20.930;2023-10-31T09:53:54;8.88;;;2.70;;
74833;SDS011;63361;52.384;20.930;2023-10-31T09:56:20;8.52;;;3.30;;
74833;SDS011;63361;52.384;20.930;2023-10-31T09:58:46;9.50;;;2.65;;
74833;SDS011;63361;52.384;20.930;2023-10-31T10:01:13;8.85;;;3.90;;
74833;SDS011;63361;52.384;20.930;2023-10-31T10:03:39;15.87;;;3.40;;
74833;SDS011;63361;52.384;20.930;2023-10-31T10:06:05;8.07;;;2.33;;
74833;SDS011;63361;52.384;20.930;2023-10-31T10:08:31;8.90;;;2.63;;
74833;SDS011;63361;52.384;20.930;2023-10-31T10:10:56;9.77;;;2.90;;
74833;SDS011;63361;52.384;20.930;2023-10-31T10:13:22;6.37;;;2.40;;
74833;SDS011;63361;52.384;20.930;2023-10-31T10:15:49;6.70;;;2.53;;
74833;SDS011;63361;52.384;20.930;2023-10-31T10:18:33;11.10;;;3.00;;
74833;SDS011;63361;52.384;20.930;2023-10-31T10:21:01;7.07;;;2.53;;
74833;SDS011;63361;52.384;20.930;2023-10-31T10:23:28;7.68;;;1.70;;
74833;SDS011;63361;52.384;20.930;2023-10-31T10:25:55;7.72;;;2.65;;
74833;SDS011;63361;52.384;20.930;2023-10-31T10:28:22;11.05;;;2.75;;
74833;SDS011;63361;52.384;20.930;2023-10-31T10:30:49;11.88;;;2.60;;
74833;SDS011;63361;52.384;20.930;2023-10-31T10:33:16;5.87;;;2.30;;
74833;SDS011;63361;52.384;20.930;2023-10-31T10:35:42;7.85;;;2.55;;
74833;SDS011;63361;52.384;20.930;2023-10-31T10:38:10;7.50;;;2.80;;
74833;SDS011;63361;52.384;20.930;2023-10-31T10:40:37;7.10;;;2.50;;
74833;SDS011;63361;52.384;20.930;2023-10-31T10:43:12;7.20;;;2.72;;
74833;SDS011;63361;52.384;20.930;2023-10-31T10:45:43;6.77;;;2.50;;
74833;SDS011;63361;52.384;20.930;2023-10-31T10:48:10;5.43;;;2.10;;
74833;SDS011;63361;52.384;20.930;2023-10-31T10:50:43;9.88;;;2.95;;
74833;SDS011;63361;52.384;20.930;2023-10-31T10:53:23;6.97;;;2.65;;
74833;SDS011;63361;52.384;20.930;2023-10-31T10:55:57;8.50;;;3.37;;
74833;SDS011;63361;52.384;20.930;2023-10-31T10:58:41;6.75;;;2.53;;
74833;SDS011;63361;52.384;20.930;2023-10-31T11:01:15;6.32;;;2.33;;
74833;SDS011;63361;52.384;20.930;2023-10-31T11:03:43;6.97;;;2.40;;
74833;SDS011;63361;52.384;20.930;2023-10-31T11:06:10;10.73;;;2.30;;
74833;SDS011;63361;52.384;20.930;2023-10-31T11:08:36;5.63;;;2.40;;
74833;SDS011;63361;52.384;20.930;2023-10-31T11:11:02;7.53;;;2.15;;
74833;SDS011;63361;52.384;20.930;2023-10-31T11:13:29;5.93;;;2.20;;
74833;SDS011;63361;52.384;20.930;2023-10-31T11:15:55;5.85;;;1.77;;
74833;SDS011;63361;52.384;20.930;2023-10-31T11:18:25;8.27;;;2.10;;
74833;SDS011;63361;52.384;20.930;2023-10-31T11:20:50;6.77;;;2.30;;
74833;SDS011;63361;52.384;20.930;2023-10-31T11:23:16;8.00;;;2.20;;
74833;SDS011;63361;52.384;20.930;2023-10-31T11:25:42;7.15;;;2.00;;
74833;SDS011;63361;52.384;20.930;2023-10-31T11:30:38;8.07;;;1.95;;
74833;SDS011;63361;52.384;20.930;2023-10-31T11:33:05;7.50;;;2.13;;
74833;SDS011;63361;52.384;20.930;2023-10-31T11:35:33;6.75;;;2.35;;
74833;SDS011;63361;52.384;20.930;2023-10-31T11:38:02;4.70;;;1.80;;
74833;SDS011;63361;52.384;20.930;2023-10-31T11:40:31;6.97;;;2.60;;
74833;SDS011;63361;52.384;20.930;2023-10-31T11:42:56;6.63;;;2.08;;
74833;SDS011;63361;52.384;20.930;2023-10-31T11:45:26;5.73;;;1.93;;
74833;SDS011;63361;52.384;20.930;2023-10-31T11:48:06;5.75;;;2.55;;
74833;SDS011;63361;52.384;20.930;2023-10-31T11:50:33;6.00;;;1.88;;
74833;SDS011;63361;52.384;20.930;2023-10-31T11:53:03;7.20;;;2.30;;
74833;SDS011;63361;52.384;20.930;2023-10-31T11:55:32;5.88;;;1.90;;
74833;SDS011;63361;52.384;20.930;2023-10-31T11:58:11;4.90;;;2.23;;
74833;SDS011;63361;52.384;20.930;2023-10-31T12:01:01;4.07;;;1.70;;
74833;SDS011;63361;52.384;20.930;2023-10-31T12:03:28;3.97;;;1.80;;
74833;SDS011;63361;52.384;20.930;2023-10-31T12:06:02;7.20;;;2.00;;
74833;SDS011;63361;52.384;20.930;2023-10-31T12:08:32;6.50;;;2.10;;
74833;SDS011;63361;52.384;20.930;2023-10-31T12:11:12;5.87;;;2.33;;
74833;SDS011;63361;52.384;20.930;2023-10-31T12:13:41;5.03;;;2.00;;
74833;SDS011;63361;52.384;20.930;2023-10-31T12:16:16;6.70;;;2.17;;
74833;SDS011;63361;52.384;20.930;2023-10-31T12:18:41;8.88;;;2.13;;
74833;SDS011;63361;52.384;20.930;2023-10-31T12:21:07;5.67;;;1.97;;
74833;SDS011;63361;52.384;20.930;2023-10-31T12:23:33;4.25;;;1.95;;
74833;SDS011;63361;52.384;20.930;2023-10-31T12:25:59;4.20;;;1.90;;
74833;SDS011;63361;52.384;20.930;2023-10-31T12:28:24;6.33;;;1.90;;
74833;SDS011;63361;52.384;20.930;2023-10-31T12:30:51;4.65;;;1.67;;
74833;SDS011;63361;52.384;20.930;2023-10-31T12:33:22;6.35;;;1.80;;
74833;SDS011;63361;52.384;20.930;2023-10-31T12:35:52;4.70;;;1.93;;
74833;SDS011;63361;52.384;20.930;2023-10-31T12:38:21;6.45;;;1.80;;
74833;SDS011;63361;52.384;20.930;2023-10-31T12:40:47;3.47;;;1.70;;
74833;SDS011;63361;52.384;20.930;2023-10-31T12:43:12;6.07;;;1.80;;
74833;SDS011;63361;52.384;20.930;2023-10-31T12:45:38;5.30;;;1.65;;
74833;SDS011;63361;52.384;20.930;2023-10-31T12:48:07;5.33;;;1.60;;
74833;SDS011;63361;52.384;20.930;2023-10-31T12:50:34;4.63;;;1.75;;
74833;SDS011;63361;52.384;20.930;2023-10-31T12:53:05;4.25;;;1.70;;
74833;SDS011;63361;52.384;20.930;2023-10-31T12:55:37;3.87;;;1.50;;
74833;SDS011;63361;52.384;20.930;2023-10-31T12:58:03;3.70;;;1.20;;
74833;SDS011;63361;52.384;20.930;2023-10-31T13:00:32;4.80;;;1.70;;
74833;SDS011;63361;52.384;20.930;2023-10-31T13:03:06;5.45;;;1.50;;
74833;SDS011;63361;52.384;20.930;2023-10-31T13:05:37;5.28;;;1.83;;
74833;SDS011;63361;52.384;20.930;2023-10-31T13:08:08;5.07;;;1.52;;
74833;SDS011;63361;52.384;20.930;2023-10-31T13:10:38;3.33;;;1.40;;
74833;SDS011;63361;52.384;20.930;2023-10-31T13:13:04;3.97;;;1.70;;
74833;SDS011;63361;52.384;20.930;2023-10-31T13:15:30;3.95;;;1.67;;
74833;SDS011;63361;52.384;20.930;2023-10-31T13:17:55;5.53;;;1.90;;
74833;SDS011;63361;52.384;20.930;2023-10-31T13:20:22;6.85;;;1.95;;
74833;SDS011;63361;52.384;20.930;2023-10-31T13:22:47;5.07;;;1.70;;
74833;SDS011;63361;52.384;20.930;2023-10-31T13:25:13;4.57;;;1.92;;
74833;SDS011;63361;52.384;20.930;2023-10-31T13:27:40;6.20;;;2.47;;
74833;SDS011;63361;52.384;20.930;2023-10-31T13:30:08;5.27;;;1.30;;
74833;SDS011;63361;52.384;20.930;2023-10-31T13:32:35;4.28;;;1.65;;
74833;SDS011;63361;52.384;20.930;2023-10-31T13:35:01;4.67;;;1.60;;
74833;SDS011;63361;52.384;20.930;2023-10-31T13:37:26;5.28;;;1.60;;
74833;SDS011;63361;52.384;20.930;2023-10-31T13:39:51;3.93;;;1.80;;
74833;SDS011;63361;52.384;20.930;2023-10-31T13:42:17;3.33;;;1.60;;
74833;SDS011;63361;52.384;20.930;2023-10-31T13:44:42;5.13;;;1.73;;
74833;SDS011;63361;52.384;20.930;2023-10-31T13:47:09;4.93;;;1.60;;
74833;SDS011;63361;52.384;20.930;2023-10-31T13:49:34;4.00;;;1.70;;
74833;SDS011;63361;52.384;20.930;2023-10-31T13:52:00;6.18;;;1.63;;
74833;SDS011;63361;52.384;20.930;2023-10-31T13:54:26;4.40;;;1.60;;
74833;SDS011;63361;52.384;20.930;2023-10-31T13:56:51;3.30;;;1.10;;
74833;SDS011;63361;52.384;20.930;2023-10-31T13:59:17;3.53;;;1.50;;
74833;SDS011;63361;52.384;20.930;2023-10-31T14:01:46;4.75;;;1.58;;
74833;SDS011;63361;52.384;20.930;2023-10-31T14:04:11;4.00;;;1.37;;
74833;SDS011;63361;52.384;20.930;2023-10-31T14:06:40;4.80;;;1.50;;
74833;SDS011;63361;52.384;20.930;2023-10-31T14:09:07;3.28;;;1.50;;
74833;SDS011;63361;52.384;20.930;2023-10-31T14:11:33;4.63;;;1.30;;
74833;SDS011;63361;52.384;20.930;2023-10-31T14:13:59;3.50;;;1.07;;
74833;SDS011;63361;52.384;20.930;2023-10-31T14:16:31;3.72;;;1.30;;
74833;SDS011;63361;52.384;20.930;2023-10-31T14:19:00;3.97;;;1.00;;
74833;SDS011;63361;52.384;20.930;2023-10-31T14:21:27;2.67;;;1.03;;
74833;SDS011;63361;52.384;20.930;2023-10-31T14:23:53;2.67;;;1.10;;